Terminal Aerodrome Forecast
Issued by NWS Portland, ME

Home | Current Version | Previous Version | Text Only | Print | Product List | Glossary On
Versions: 1 2 3 4 5 6 7 8 9 10 11 12 13 14 15 16 17 18 19 20 21 22 23
000
FTUS41 KGYX 291728
TAFCON
TAF
KCON 291728Z 2918/3018 VRB03KT P6SM SCT250
     FM300200 VRB03KT P6SM OVC100
     FM300600 VRB03KT 4SM -SN BR OVC020
     FM301100 VRB03KT 1 1/2SM -SN BR OVC005=

USA.gov is the U.S. government's official web portal to all federal, state and local government web resources and services.